This is the latest recevied weather packets stored in our database for station/object DL2BWO-13. If no packets are shown the sender has not sent any weather packets the latest 10 day(s).
| Time | Temp. | Humidity | Pressure | Rain* | Wind** | Luminosity | Snow |
|---|---|---|---|---|---|---|---|
| 1777795791 | 24.44° C | 52% | 752.8 hPa | 0 mm | - | - | - |
| 1777792983 | 21.67° C | 55% | 750.2 hPa | 0 mm | - | - | - |
| 1777792047 | 20.56° C | 56% | 748.8 hPa | 0 mm | - | - | - |
| 1777791111 | 19.44° C | 57% | 747.7 hPa | 0 mm | - | - | - |
| 1777790175 | 18.89° C | 59% | 746.6 hPa | 0 mm | - | - | - |
| 1777789239 | 17.78° C | 61% | 745.5 hPa | 0 mm | - | - | - |
| 1777788303 | 16.67° C | 62% | 744.4 hPa | 0 mm | - | - | - |
| 1777787367 | 15.56° C | 65% | 743.1 hPa | 0 mm | - | - | - |
| 1777785495 | 13.33° C | 70% | 740.9 hPa | 0 mm | - | - | - |
| 1777784559 | 12.78° C | 75% | 739.7 hPa | 0 mm | - | - | - |
| 1777783623 | 11.67° C | 80% | 738.6 hPa | 0 mm | - | - | - |
| 1777782687 | 10.56° C | 79% | 737.5 hPa | 0 mm | - | - | - |
| 1777780815 | 10° C | 79% | 737 hPa | 0 mm | - | - | - |
| 1777779879 | 10.56° C | 79% | 737.1 hPa | 0 mm | - | - | - |
| 1777778943 | 10.56° C | 78% | 737.3 hPa | 0 mm | - | - | - |
| 1777777072 | 11.11° C | 75% | 737.9 hPa | 0 mm | - | - | - |
| 1777775200 | 11.11° C | 74% | 738.3 hPa | 0 mm | - | - | - |
| 1777773328 | 11.67° C | 73% | 738.7 hPa | 0 mm | - | - | - |
| 1777772392 | 11.67° C | 73% | 738.7 hPa | 0 mm | - | - | - |
| 1777771456 | 12.22° C | 72% | 739 hPa | 0 mm | - | - | - |
| 1777769584 | 12.22° C | 69% | 739.6 hPa | 0 mm | - | - | - |
| 1777768648 | 12.78° C | 69% | 739.6 hPa | 0 mm | - | - | - |
| 1777767712 | 12.78° C | 69% | 739.7 hPa | 0 mm | - | - | - |
| 1777766776 | 12.78° C | 67% | 740 hPa | 0 mm | - | - | - |
| 1777765840 | 12.78° C | 69% | 739.9 hPa | 0 mm | - | - | - |
* Rain latest hour (hover to see other rain measurements)
** Current wind speed in m/s (hover to see current wind gust speed)